Sublimity, Oregon
Current Conditions -  °F | °C
As of 5:56 AM on Friday 19 Dec 2014 (Local Time) from KSLE Reporting Station
Light Rain Light Rain  
Wind Chill: 41°   Ceiling: 5000
Heat Index: 46°   Visibility: 10mi
Dew Point: 42°   Wind: 12mph
Humidity: 86%   Direction: 150°SSE
Pressure: 29.93"   Gusts: NA
Location:  44.83°N, 122.79°W
Report Text: KSLE 191356Z AUTO 15010KT 10SM -RA FEW045 OVC050 08/06 A2993 RMK AO2 SLP134 P0001 T00780056
Loading
Personal Weather Stations






























Interactive Weather Map New forecast layout! Learn more

10-Day Weather Forecast

Advertisements
Track Severe Weather on mobile